sensor_id;sensor_type;location;lat;lon;timestamp;P1;durP1;ratioP1;P2;durP2;ratioP2
15012;SDS011;7603;49.432;11.418;2022-08-25T00:00:16;16.77;;;15.27;;
15012;SDS011;7603;49.432;11.418;2022-08-25T00:02:43;16.40;;;14.85;;
15012;SDS011;7603;49.432;11.418;2022-08-25T00:05:09;17.40;;;15.73;;
15012;SDS011;7603;49.432;11.418;2022-08-25T00:07:34;16.45;;;14.93;;
15012;SDS011;7603;49.432;11.418;2022-08-25T00:10:00;16.83;;;15.10;;
15012;SDS011;7603;49.432;11.418;2022-08-25T00:12:26;17.38;;;15.52;;
15012;SDS011;7603;49.432;11.418;2022-08-25T00:14:52;22.65;;;17.80;;
15012;SDS011;7603;49.432;11.418;2022-08-25T00:17:17;19.25;;;17.08;;
15012;SDS011;7603;49.432;11.418;2022-08-25T00:19:43;19.10;;;17.08;;
15012;SDS011;7603;49.432;11.418;2022-08-25T00:22:09;18.88;;;16.98;;
15012;SDS011;7603;49.432;11.418;2022-08-25T00:24:35;18.17;;;16.35;;
15012;SDS011;7603;49.432;11.418;2022-08-25T00:27:01;18.27;;;16.48;;
15012;SDS011;7603;49.432;11.418;2022-08-25T00:29:30;20.75;;;17.38;;
15012;SDS011;7603;49.432;11.418;2022-08-25T00:31:57;19.45;;;17.45;;
15012;SDS011;7603;49.432;11.418;2022-08-25T00:34:27;20.63;;;18.45;;
15012;SDS011;7603;49.432;11.418;2022-08-25T00:36:55;18.73;;;16.80;;
15012;SDS011;7603;49.432;11.418;2022-08-25T00:39:22;21.83;;;19.45;;
15012;SDS011;7603;49.432;11.418;2022-08-25T00:41:49;21.30;;;19.00;;
15012;SDS011;7603;49.432;11.418;2022-08-25T00:44:17;22.10;;;19.70;;
15012;SDS011;7603;49.432;11.418;2022-08-25T00:46:46;22.42;;;20.00;;
15012;SDS011;7603;49.432;11.418;2022-08-25T00:49:25;21.98;;;17.92;;
15012;SDS011;7603;49.432;11.418;2022-08-25T00:51:56;21.23;;;18.80;;
15012;SDS011;7603;49.432;11.418;2022-08-25T00:54:37;21.95;;;19.48;;
15012;SDS011;7603;49.432;11.418;2022-08-25T00:57:06;22.30;;;20.00;;
15012;SDS011;7603;49.432;11.418;2022-08-25T00:59:34;21.67;;;18.73;;
15012;SDS011;7603;49.432;11.418;2022-08-25T01:02:01;23.10;;;19.52;;
15012;SDS011;7603;49.432;11.418;2022-08-25T01:04:28;20.80;;;18.63;;
15012;SDS011;7603;49.432;11.418;2022-08-25T01:06:54;22.42;;;18.77;;
15012;SDS011;7603;49.432;11.418;2022-08-25T01:09:22;23.85;;;18.95;;
15012;SDS011;7603;49.432;11.418;2022-08-25T01:11:48;24.10;;;18.20;;
15012;SDS011;7603;49.432;11.418;2022-08-25T01:14:16;22.75;;;18.23;;
15012;SDS011;7603;49.432;11.418;2022-08-25T01:16:44;21.35;;;17.48;;
15012;SDS011;7603;49.432;11.418;2022-08-25T01:19:12;20.42;;;18.17;;
15012;SDS011;7603;49.432;11.418;2022-08-25T01:21:43;26.08;;;18.70;;
15012;SDS011;7603;49.432;11.418;2022-08-25T01:24:22;22.85;;;18.90;;
15012;SDS011;7603;49.432;11.418;2022-08-25T01:27:07;23.92;;;19.15;;
15012;SDS011;7603;49.432;11.418;2022-08-25T01:29:34;21.90;;;18.30;;
15012;SDS011;7603;49.432;11.418;2022-08-25T01:32:02;23.98;;;20.33;;
15012;SDS011;7603;49.432;11.418;2022-08-25T01:34:31;23.02;;;20.58;;
15012;SDS011;7603;49.432;11.418;2022-08-25T01:36:59;23.30;;;17.75;;
15012;SDS011;7603;49.432;11.418;2022-08-25T01:39:26;25.85;;;21.25;;
15012;SDS011;7603;49.432;11.418;2022-08-25T01:44:30;25.60;;;22.90;;
15012;SDS011;7603;49.432;11.418;2022-08-25T01:46:59;29.73;;;22.42;;
15012;SDS011;7603;49.432;11.418;2022-08-25T01:49:26;28.25;;;23.33;;
15012;SDS011;7603;49.432;11.418;2022-08-25T01:51:55;22.65;;;19.45;;
15012;SDS011;7603;49.432;11.418;2022-08-25T01:54:24;25.67;;;21.27;;
15012;SDS011;7603;49.432;11.418;2022-08-25T01:56:50;25.95;;;21.25;;
15012;SDS011;7603;49.432;11.418;2022-08-25T01:59:16;30.95;;;22.88;;
15012;SDS011;7603;49.432;11.418;2022-08-25T02:01:44;25.27;;;21.30;;
15012;SDS011;7603;49.432;11.418;2022-08-25T02:04:09;27.00;;;23.20;;
15012;SDS011;7603;49.432;11.418;2022-08-25T02:06:36;31.80;;;23.55;;
15012;SDS011;7603;49.432;11.418;2022-08-25T02:09:04;26.92;;;21.63;;
15012;SDS011;7603;49.432;11.418;2022-08-25T02:11:34;30.40;;;24.02;;
15012;SDS011;7603;49.432;11.418;2022-08-25T02:14:01;23.30;;;20.75;;
15012;SDS011;7603;49.432;11.418;2022-08-25T02:16:28;27.30;;;21.88;;
15012;SDS011;7603;49.432;11.418;2022-08-25T02:18:58;28.40;;;21.83;;
15012;SDS011;7603;49.432;11.418;2022-08-25T02:21:24;30.98;;;22.33;;
15012;SDS011;7603;49.432;11.418;2022-08-25T02:23:50;25.67;;;20.77;;
15012;SDS011;7603;49.432;11.418;2022-08-25T02:26:17;31.15;;;24.45;;
15012;SDS011;7603;49.432;11.418;2022-08-25T02:28:47;30.45;;;22.17;;
15012;SDS011;7603;49.432;11.418;2022-08-25T02:31:15;32.47;;;22.67;;
15012;SDS011;7603;49.432;11.418;2022-08-25T02:33:41;25.33;;;20.52;;
15012;SDS011;7603;49.432;11.418;2022-08-25T02:36:08;29.45;;;22.67;;
15012;SDS011;7603;49.432;11.418;2022-08-25T02:38:34;25.63;;;19.92;;
15012;SDS011;7603;49.432;11.418;2022-08-25T02:41:06;27.52;;;22.05;;
15012;SDS011;7603;49.432;11.418;2022-08-25T02:43:38;28.58;;;22.58;;
15012;SDS011;7603;49.432;11.418;2022-08-25T02:46:05;30.90;;;23.50;;
15012;SDS011;7603;49.432;11.418;2022-08-25T02:48:31;25.85;;;21.45;;
15012;SDS011;7603;49.432;11.418;2022-08-25T02:50:58;29.23;;;22.20;;
15012;SDS011;7603;49.432;11.418;2022-08-25T02:53:25;24.23;;;20.80;;
15012;SDS011;7603;49.432;11.418;2022-08-25T02:55:52;31.75;;;23.73;;
15012;SDS011;7603;49.432;11.418;2022-08-25T02:58:18;27.83;;;22.70;;
15012;SDS011;7603;49.432;11.418;2022-08-25T03:00:45;26.55;;;21.77;;
15012;SDS011;7603;49.432;11.418;2022-08-25T03:03:12;44.65;;;31.30;;
15012;SDS011;7603;49.432;11.418;2022-08-25T03:05:38;33.95;;;26.38;;
15012;SDS011;7603;49.432;11.418;2022-08-25T03:08:05;32.15;;;24.75;;
15012;SDS011;7603;49.432;11.418;2022-08-25T03:10:31;27.27;;;23.65;;
15012;SDS011;7603;49.432;11.418;2022-08-25T03:12:57;29.60;;;23.60;;
15012;SDS011;7603;49.432;11.418;2022-08-25T03:15:23;28.45;;;23.20;;
15012;SDS011;7603;49.432;11.418;2022-08-25T03:17:51;30.20;;;23.08;;
15012;SDS011;7603;49.432;11.418;2022-08-25T03:20:19;34.90;;;25.35;;
15012;SDS011;7603;49.432;11.418;2022-08-25T03:22:45;34.22;;;23.58;;
15012;SDS011;7603;49.432;11.418;2022-08-25T03:25:11;28.90;;;23.52;;
15012;SDS011;7603;49.432;11.418;2022-08-25T03:27:55;29.63;;;23.92;;
15012;SDS011;7603;49.432;11.418;2022-08-25T03:30:21;40.10;;;28.13;;
15012;SDS011;7603;49.432;11.418;2022-08-25T03:32:47;32.22;;;24.35;;
15012;SDS011;7603;49.432;11.418;2022-08-25T03:35:12;34.35;;;25.27;;
15012;SDS011;7603;49.432;11.418;2022-08-25T03:37:38;42.35;;;27.65;;
15012;SDS011;7603;49.432;11.418;2022-08-25T03:40:05;33.80;;;25.33;;
15012;SDS011;7603;49.432;11.418;2022-08-25T03:42:33;34.38;;;25.92;;
15012;SDS011;7603;49.432;11.418;2022-08-25T03:45:01;38.20;;;26.40;;
15012;SDS011;7603;49.432;11.418;2022-08-25T03:47:28;42.83;;;27.45;;
15012;SDS011;7603;49.432;11.418;2022-08-25T03:49:54;35.47;;;25.83;;
15012;SDS011;7603;49.432;11.418;2022-08-25T03:52:20;43.67;;;28.58;;
15012;SDS011;7603;49.432;11.418;2022-08-25T03:54:46;39.88;;;27.50;;
15012;SDS011;7603;49.432;11.418;2022-08-25T03:57:11;43.80;;;29.83;;
15012;SDS011;7603;49.432;11.418;2022-08-25T03:59:37;42.65;;;30.25;;
15012;SDS011;7603;49.432;11.418;2022-08-25T04:02:03;36.53;;;26.52;;
15012;SDS011;7603;49.432;11.418;2022-08-25T04:04:29;41.45;;;28.52;;
15012;SDS011;7603;49.432;11.418;2022-08-25T04:06:55;42.35;;;29.15;;
15012;SDS011;7603;49.432;11.418;2022-08-25T04:09:22;42.60;;;28.63;;
15012;SDS011;7603;49.432;11.418;2022-08-25T04:11:48;34.17;;;25.63;;
15012;SDS011;7603;49.432;11.418;2022-08-25T04:14:14;37.42;;;27.65;;
15012;SDS011;7603;49.432;11.418;2022-08-25T04:16:39;45.03;;;31.13;;
15012;SDS011;7603;49.432;11.418;2022-08-25T04:19:06;38.30;;;28.88;;
15012;SDS011;7603;49.432;11.418;2022-08-25T04:21:33;42.35;;;28.95;;
15012;SDS011;7603;49.432;11.418;2022-08-25T04:24:03;46.17;;;31.90;;
15012;SDS011;7603;49.432;11.418;2022-08-25T04:26:31;50.63;;;31.90;;
15012;SDS011;7603;49.432;11.418;2022-08-25T04:28:59;51.25;;;32.53;;
15012;SDS011;7603;49.432;11.418;2022-08-25T04:31:27;30.10;;;24.00;;
15012;SDS011;7603;49.432;11.418;2022-08-25T04:33:54;42.08;;;29.10;;
15012;SDS011;7603;49.432;11.418;2022-08-25T04:36:20;34.50;;;25.30;;
15012;SDS011;7603;49.432;11.418;2022-08-25T04:38:46;34.63;;;25.63;;
15012;SDS011;7603;49.432;11.418;2022-08-25T04:41:14;41.10;;;27.95;;
15012;SDS011;7603;49.432;11.418;2022-08-25T04:43:42;46.97;;;28.13;;
15012;SDS011;7603;49.432;11.418;2022-08-25T04:46:10;41.35;;;28.25;;
15012;SDS011;7603;49.432;11.418;2022-08-25T04:48:41;38.58;;;27.40;;
15012;SDS011;7603;49.432;11.418;2022-08-25T04:51:11;32.47;;;25.10;;
15012;SDS011;7603;49.432;11.418;2022-08-25T04:53:39;38.08;;;25.85;;
15012;SDS011;7603;49.432;11.418;2022-08-25T04:56:10;36.88;;;27.35;;
15012;SDS011;7603;49.432;11.418;2022-08-25T04:58:38;36.95;;;26.73;;
15012;SDS011;7603;49.432;11.418;2022-08-25T05:01:09;45.70;;;29.95;;
15012;SDS011;7603;49.432;11.418;2022-08-25T05:03:37;32.65;;;25.67;;
15012;SDS011;7603;49.432;11.418;2022-08-25T05:06:03;32.30;;;24.95;;
15012;SDS011;7603;49.432;11.418;2022-08-25T05:08:30;38.67;;;26.15;;
15012;SDS011;7603;49.432;11.418;2022-08-25T05:10:56;37.47;;;27.42;;
15012;SDS011;7603;49.432;11.418;2022-08-25T05:13:23;40.83;;;29.10;;
15012;SDS011;7603;49.432;11.418;2022-08-25T05:15:50;32.67;;;24.83;;
15012;SDS011;7603;49.432;11.418;2022-08-25T05:18:21;37.10;;;25.38;;
15012;SDS011;7603;49.432;11.418;2022-08-25T05:20:48;29.10;;;25.00;;
15012;SDS011;7603;49.432;11.418;2022-08-25T05:23:14;34.65;;;27.00;;
15012;SDS011;7603;49.432;11.418;2022-08-25T05:25:40;35.08;;;26.55;;
15012;SDS011;7603;49.432;11.418;2022-08-25T05:28:07;35.25;;;26.95;;
15012;SDS011;7603;49.432;11.418;2022-08-25T05:30:33;33.17;;;27.67;;
15012;SDS011;7603;49.432;11.418;2022-08-25T05:33:01;28.42;;;24.80;;
15012;SDS011;7603;49.432;11.418;2022-08-25T05:35:27;28.60;;;24.70;;
15012;SDS011;7603;49.432;11.418;2022-08-25T05:37:53;34.63;;;28.85;;
15012;SDS011;7603;49.432;11.418;2022-08-25T05:40:21;34.15;;;26.80;;
15012;SDS011;7603;49.432;11.418;2022-08-25T05:42:47;33.35;;;26.67;;
15012;SDS011;7603;49.432;11.418;2022-08-25T05:45:13;29.38;;;24.95;;
15012;SDS011;7603;49.432;11.418;2022-08-25T05:47:39;27.85;;;23.77;;
15012;SDS011;7603;49.432;11.418;2022-08-25T05:50:05;25.98;;;23.00;;
15012;SDS011;7603;49.432;11.418;2022-08-25T05:52:31;23.70;;;21.38;;
15012;SDS011;7603;49.432;11.418;2022-08-25T05:54:57;22.80;;;20.35;;
15012;SDS011;7603;49.432;11.418;2022-08-25T05:57:23;24.73;;;22.20;;
15012;SDS011;7603;49.432;11.418;2022-08-25T05:59:49;21.77;;;19.70;;
15012;SDS011;7603;49.432;11.418;2022-08-25T06:02:14;25.50;;;21.92;;
15012;SDS011;7603;49.432;11.418;2022-08-25T06:04:58;22.65;;;20.27;;
15012;SDS011;7603;49.432;11.418;2022-08-25T06:07:24;23.30;;;20.10;;
15012;SDS011;7603;49.432;11.418;2022-08-25T06:09:50;22.77;;;20.48;;
15012;SDS011;7603;49.432;11.418;2022-08-25T06:12:16;21.95;;;19.85;;
15012;SDS011;7603;49.432;11.418;2022-08-25T06:14:43;22.73;;;20.45;;
15012;SDS011;7603;49.432;11.418;2022-08-25T06:17:09;23.00;;;20.27;;
15012;SDS011;7603;49.432;11.418;2022-08-25T06:19:34;20.38;;;17.88;;
15012;SDS011;7603;49.432;11.418;2022-08-25T06:22:00;20.55;;;18.65;;
15012;SDS011;7603;49.432;11.418;2022-08-25T06:24:26;20.75;;;18.65;;
15012;SDS011;7603;49.432;11.418;2022-08-25T06:26:55;19.38;;;17.58;;
15012;SDS011;7603;49.432;11.418;2022-08-25T06:29:21;20.25;;;18.33;;
15012;SDS011;7603;49.432;11.418;2022-08-25T06:31:47;19.83;;;17.88;;
15012;SDS011;7603;49.432;11.418;2022-08-25T06:34:14;19.25;;;17.55;;
15012;SDS011;7603;49.432;11.418;2022-08-25T06:36:41;21.10;;;19.10;;
15012;SDS011;7603;49.432;11.418;2022-08-25T06:39:06;23.83;;;20.25;;
15012;SDS011;7603;49.432;11.418;2022-08-25T06:41:33;18.40;;;16.60;;
15012;SDS011;7603;49.432;11.418;2022-08-25T06:43:58;17.17;;;15.73;;
15012;SDS011;7603;49.432;11.418;2022-08-25T06:46:25;13.77;;;12.77;;
15012;SDS011;7603;49.432;11.418;2022-08-25T06:48:51;13.50;;;12.30;;
15012;SDS011;7603;49.432;11.418;2022-08-25T06:51:21;13.18;;;11.95;;
15012;SDS011;7603;49.432;11.418;2022-08-25T06:53:48;12.00;;;10.93;;
15012;SDS011;7603;49.432;11.418;2022-08-25T06:56:16;16.67;;;12.98;;
15012;SDS011;7603;49.432;11.418;2022-08-25T06:58:43;12.40;;;11.35;;
15012;SDS011;7603;49.432;11.418;2022-08-25T07:01:13;12.80;;;11.80;;
15012;SDS011;7603;49.432;11.418;2022-08-25T07:03:41;13.20;;;12.23;;
15012;SDS011;7603;49.432;11.418;2022-08-25T07:06:07;14.35;;;13.15;;
15012;SDS011;7603;49.432;11.418;2022-08-25T07:08:33;13.13;;;12.00;;
15012;SDS011;7603;49.432;11.418;2022-08-25T07:11:07;12.57;;;11.57;;
15012;SDS011;7603;49.432;11.418;2022-08-25T07:13:34;12.25;;;11.35;;
15012;SDS011;7603;49.432;11.418;2022-08-25T07:16:01;9.95;;;9.13;;
15012;SDS011;7603;49.432;11.418;2022-08-25T07:18:29;9.55;;;8.80;;
15012;SDS011;7603;49.432;11.418;2022-08-25T07:20:56;9.52;;;8.73;;
15012;SDS011;7603;49.432;11.418;2022-08-25T07:23:22;10.40;;;9.45;;
15012;SDS011;7603;49.432;11.418;2022-08-25T07:25:49;9.95;;;9.15;;
15012;SDS011;7603;49.432;11.418;2022-08-25T07:28:14;9.68;;;8.82;;
15012;SDS011;7603;49.432;11.418;2022-08-25T07:30:41;9.35;;;8.63;;
15012;SDS011;7603;49.432;11.418;2022-08-25T07:33:06;9.43;;;8.68;;
15012;SDS011;7603;49.432;11.418;2022-08-25T07:35:32;9.40;;;8.70;;
15012;SDS011;7603;49.432;11.418;2022-08-25T07:37:58;8.32;;;7.82;;
15012;SDS011;7603;49.432;11.418;2022-08-25T07:40:25;9.48;;;8.88;;
15012;SDS011;7603;49.432;11.418;2022-08-25T07:42:53;11.15;;;10.25;;
15012;SDS011;7603;49.432;11.418;2022-08-25T07:45:22;10.82;;;9.95;;
15012;SDS011;7603;49.432;11.418;2022-08-25T07:47:55;11.55;;;10.63;;
15012;SDS011;7603;49.432;11.418;2022-08-25T07:50:26;11.20;;;10.40;;
15012;SDS011;7603;49.432;11.418;2022-08-25T07:52:54;11.30;;;10.40;;
15012;SDS011;7603;49.432;11.418;2022-08-25T07:55:20;12.50;;;11.30;;
15012;SDS011;7603;49.432;11.418;2022-08-25T07:57:47;11.73;;;10.82;;
15012;SDS011;7603;49.432;11.418;2022-08-25T08:00:13;11.68;;;10.88;;
15012;SDS011;7603;49.432;11.418;2022-08-25T08:02:40;12.88;;;11.70;;
15012;SDS011;7603;49.432;11.418;2022-08-25T08:05:06;11.55;;;10.75;;
15012;SDS011;7603;49.432;11.418;2022-08-25T08:07:32;11.68;;;10.80;;
15012;SDS011;7603;49.432;11.418;2022-08-25T08:09:59;12.15;;;11.25;;
15012;SDS011;7603;49.432;11.418;2022-08-25T08:12:25;12.13;;;10.98;;
15012;SDS011;7603;49.432;11.418;2022-08-25T08:14:51;12.35;;;11.45;;
15012;SDS011;7603;49.432;11.418;2022-08-25T08:17:17;13.43;;;12.15;;
15012;SDS011;7603;49.432;11.418;2022-08-25T08:19:46;11.90;;;10.93;;
15012;SDS011;7603;49.432;11.418;2022-08-25T08:22:12;11.65;;;10.75;;
15012;SDS011;7603;49.432;11.418;2022-08-25T08:24:42;11.57;;;10.77;;
15012;SDS011;7603;49.432;11.418;2022-08-25T08:27:09;11.82;;;10.85;;
15012;SDS011;7603;49.432;11.418;2022-08-25T08:29:37;11.45;;;10.43;;
15012;SDS011;7603;49.432;11.418;2022-08-25T08:32:04;11.38;;;10.32;;
15012;SDS011;7603;49.432;11.418;2022-08-25T08:34:32;11.95;;;10.88;;
15012;SDS011;7603;49.432;11.418;2022-08-25T08:36:58;10.93;;;10.10;;
15012;SDS011;7603;49.432;11.418;2022-08-25T08:39:25;10.98;;;10.27;;
15012;SDS011;7603;49.432;11.418;2022-08-25T08:42:06;10.77;;;9.93;;
15012;SDS011;7603;49.432;11.418;2022-08-25T08:55:44;8.65;;;8.05;;
15012;SDS011;7603;49.432;11.418;2022-08-25T08:58:25;9.40;;;8.65;;
15012;SDS011;7603;49.432;11.418;2022-08-25T09:01:04;8.55;;;7.97;;
15012;SDS011;7603;49.432;11.418;2022-08-25T09:03:39;7.60;;;7.05;;
15012;SDS011;7603;49.432;11.418;2022-08-25T09:06:08;8.52;;;7.93;;
15012;SDS011;7603;49.432;11.418;2022-08-25T09:08:38;8.38;;;7.88;;
15012;SDS011;7603;49.432;11.418;2022-08-25T09:11:19;8.25;;;7.57;;
15012;SDS011;7603;49.432;11.418;2022-08-25T09:16:53;8.07;;;7.47;;
15012;SDS011;7603;49.432;11.418;2022-08-25T09:22:12;8.30;;;7.70;;
15012;SDS011;7603;49.432;11.418;2022-08-25T09:24:50;7.93;;;7.50;;
15012;SDS011;7603;49.432;11.418;2022-08-25T09:30:26;8.32;;;7.75;;
15012;SDS011;7603;49.432;11.418;2022-08-25T09:32:57;9.38;;;7.80;;
15012;SDS011;7603;49.432;11.418;2022-08-25T09:35:34;9.23;;;8.65;;
15012;SDS011;7603;49.432;11.418;2022-08-25T09:38:04;8.10;;;7.60;;
15012;SDS011;7603;49.432;11.418;2022-08-25T09:40:49;8.63;;;7.90;;
15012;SDS011;7603;49.432;11.418;2022-08-25T09:45:46;8.50;;;8.00;;
15012;SDS011;7603;49.432;11.418;2022-08-25T09:50:56;8.40;;;7.80;;
15012;SDS011;7603;49.432;11.418;2022-08-25T09:53:25;7.90;;;7.40;;
15012;SDS011;7603;49.432;11.418;2022-08-25T09:55:54;7.78;;;7.38;;
15012;SDS011;7603;49.432;11.418;2022-08-25T09:58:23;7.07;;;6.63;;
15012;SDS011;7603;49.432;11.418;2022-08-25T10:04:00;7.35;;;6.85;;
15012;SDS011;7603;49.432;11.418;2022-08-25T10:06:30;7.90;;;7.30;;
15012;SDS011;7603;49.432;11.418;2022-08-25T10:09:09;7.63;;;7.10;;
15012;SDS011;7603;49.432;11.418;2022-08-25T10:11:46;7.78;;;7.28;;
15012;SDS011;7603;49.432;11.418;2022-08-25T10:14:25;7.78;;;7.22;;
15012;SDS011;7603;49.432;11.418;2022-08-25T10:19:50;8.02;;;7.53;;
15012;SDS011;7603;49.432;11.418;2022-08-25T10:24:58;7.85;;;7.35;;
15012;SDS011;7603;49.432;11.418;2022-08-25T10:27:35;8.35;;;7.75;;
15012;SDS011;7603;49.432;11.418;2022-08-25T10:35:29;7.20;;;6.80;;
15012;SDS011;7603;49.432;11.418;2022-08-25T10:41:08;7.28;;;6.78;;
15012;SDS011;7603;49.432;11.418;2022-08-25T10:43:52;7.13;;;6.60;;
15012;SDS011;7603;49.432;11.418;2022-08-25T10:46:30;7.65;;;7.15;;
15012;SDS011;7603;49.432;11.418;2022-08-25T10:49:14;7.45;;;7.00;;
15012;SDS011;7603;49.432;11.418;2022-08-25T10:54:40;8.55;;;7.78;;
15012;SDS011;7603;49.432;11.418;2022-08-25T11:00:13;7.65;;;7.03;;
15012;SDS011;7603;49.432;11.418;2022-08-25T11:05:29;8.10;;;7.50;;
15012;SDS011;7603;49.432;11.418;2022-08-25T11:08:15;7.18;;;6.78;;
15012;SDS011;7603;49.432;11.418;2022-08-25T11:13:25;8.23;;;7.47;;
15012;SDS011;7603;49.432;11.418;2022-08-25T11:16:10;7.82;;;7.20;;
15012;SDS011;7603;49.432;11.418;2022-08-25T11:18:42;8.02;;;7.53;;
15012;SDS011;7603;49.432;11.418;2022-08-25T11:21:16;8.15;;;7.55;;
15012;SDS011;7603;49.432;11.418;2022-08-25T11:24:00;7.28;;;6.60;;
15012;SDS011;7603;49.432;11.418;2022-08-25T11:26:34;7.97;;;7.30;;
15012;SDS011;7603;49.432;11.418;2022-08-25T11:29:15;7.47;;;6.88;;
15012;SDS011;7603;49.432;11.418;2022-08-25T11:31:43;7.30;;;6.90;;
15012;SDS011;7603;49.432;11.418;2022-08-25T11:34:12;6.90;;;6.50;;
15012;SDS011;7603;49.432;11.418;2022-08-25T11:36:40;6.55;;;6.15;;
15012;SDS011;7603;49.432;11.418;2022-08-25T11:39:14;6.53;;;6.00;;
15012;SDS011;7603;49.432;11.418;2022-08-25T11:44:34;6.53;;;5.95;;
15012;SDS011;7603;49.432;11.418;2022-08-25T11:57:46;6.47;;;6.07;;
15012;SDS011;7603;49.432;11.418;2022-08-25T12:00:34;7.32;;;6.93;;
15012;SDS011;7603;49.432;11.418;2022-08-25T12:12:03;7.97;;;6.80;;
15012;SDS011;7603;49.432;11.418;2022-08-25T12:27:16;6.32;;;5.53;;
15012;SDS011;7603;49.432;11.418;2022-08-25T12:43:12;5.30;;;5.00;;
15012;SDS011;7603;49.432;11.418;2022-08-25T12:45:54;5.30;;;4.93;;
15012;SDS011;7603;49.432;11.418;2022-08-25T12:48:58;5.43;;;4.90;;
15012;SDS011;7603;49.432;11.418;2022-08-25T12:57:12;5.85;;;5.20;;
15012;SDS011;7603;49.432;11.418;2022-08-25T12:59:47;7.90;;;5.40;;
15012;SDS011;7603;49.432;11.418;2022-08-25T13:15:25;5.57;;;5.28;;
15012;SDS011;7603;49.432;11.418;2022-08-25T13:18:25;5.68;;;5.18;;
15012;SDS011;7603;49.432;11.418;2022-08-25T13:21:14;5.35;;;4.93;;
15012;SDS011;7603;49.432;11.418;2022-08-25T13:24:00;5.53;;;4.97;;
15012;SDS011;7603;49.432;11.418;2022-08-25T13:26:35;5.03;;;4.72;;
15012;SDS011;7603;49.432;11.418;2022-08-25T13:31:34;4.75;;;4.32;;
15012;SDS011;7603;49.432;11.418;2022-08-25T13:34:05;4.45;;;4.18;;
15012;SDS011;7603;49.432;11.418;2022-08-25T13:36:35;4.88;;;4.57;;
15012;SDS011;7603;49.432;11.418;2022-08-25T13:39:30;4.82;;;3.90;;
15012;SDS011;7603;49.432;11.418;2022-08-25T13:42:00;5.63;;;4.18;;
15012;SDS011;7603;49.432;11.418;2022-08-25T13:44:30;4.40;;;4.10;;
15012;SDS011;7603;49.432;11.418;2022-08-25T13:47:07;4.75;;;4.35;;
15012;SDS011;7603;49.432;11.418;2022-08-25T13:49:42;4.72;;;4.43;;
15012;SDS011;7603;49.432;11.418;2022-08-25T13:52:24;4.80;;;4.50;;
15012;SDS011;7603;49.432;11.418;2022-08-25T13:54:55;4.78;;;4.18;;
15012;SDS011;7603;49.432;11.418;2022-08-25T13:57:24;4.90;;;4.55;;
15012;SDS011;7603;49.432;11.418;2022-08-25T13:59:53;5.10;;;4.80;;
15012;SDS011;7603;49.432;11.418;2022-08-25T14:02:43;5.93;;;5.20;;
15012;SDS011;7603;49.432;11.418;2022-08-25T14:05:14;4.47;;;4.15;;
15012;SDS011;7603;49.432;11.418;2022-08-25T14:07:53;6.25;;;5.20;;
15012;SDS011;7603;49.432;11.418;2022-08-25T14:10:40;5.82;;;5.22;;
15012;SDS011;7603;49.432;11.418;2022-08-25T14:13:10;5.32;;;4.82;;
15012;SDS011;7603;49.432;11.418;2022-08-25T14:15:42;6.15;;;5.35;;
15012;SDS011;7603;49.432;11.418;2022-08-25T14:18:12;5.32;;;4.93;;
15012;SDS011;7603;49.432;11.418;2022-08-25T14:20:47;6.32;;;5.57;;
15012;SDS011;7603;49.432;11.418;2022-08-25T14:23:16;5.40;;;5.00;;
15012;SDS011;7603;49.432;11.418;2022-08-25T14:25:45;5.20;;;4.85;;
15012;SDS011;7603;49.432;11.418;2022-08-25T14:28:14;5.80;;;5.30;;
15012;SDS011;7603;49.432;11.418;2022-08-25T14:30:43;5.90;;;5.43;;
15012;SDS011;7603;49.432;11.418;2022-08-25T14:33:15;6.95;;;6.32;;
15012;SDS011;7603;49.432;11.418;2022-08-25T14:35:44;6.80;;;6.07;;
15012;SDS011;7603;49.432;11.418;2022-08-25T14:38:13;9.32;;;5.80;;
15012;SDS011;7603;49.432;11.418;2022-08-25T14:40:39;6.28;;;5.68;;
15012;SDS011;7603;49.432;11.418;2022-08-25T14:43:06;5.57;;;5.18;;
15012;SDS011;7603;49.432;11.418;2022-08-25T14:45:33;5.63;;;4.70;;
15012;SDS011;7603;49.432;11.418;2022-08-25T14:48:05;5.25;;;4.63;;
15012;SDS011;7603;49.432;11.418;2022-08-25T14:50:33;5.50;;;5.10;;
15012;SDS011;7603;49.432;11.418;2022-08-25T14:53:00;5.45;;;4.80;;
15012;SDS011;7603;49.432;11.418;2022-08-25T14:55:26;9.05;;;4.75;;
15012;SDS011;7603;49.432;11.418;2022-08-25T14:57:53;5.63;;;4.35;;
15012;SDS011;7603;49.432;11.418;2022-08-25T15:00:19;6.63;;;4.65;;
15012;SDS011;7603;49.432;11.418;2022-08-25T15:02:45;6.07;;;5.20;;
15012;SDS011;7603;49.432;11.418;2022-08-25T15:05:14;6.88;;;4.78;;
15012;SDS011;7603;49.432;11.418;2022-08-25T15:07:44;4.68;;;4.28;;
15012;SDS011;7603;49.432;11.418;2022-08-25T15:10:29;9.70;;;4.78;;
15012;SDS011;7603;49.432;11.418;2022-08-25T15:12:55;5.35;;;4.85;;
15012;SDS011;7603;49.432;11.418;2022-08-25T15:15:20;4.88;;;4.47;;
15012;SDS011;7603;49.432;11.418;2022-08-25T15:17:50;4.60;;;4.30;;
15012;SDS011;7603;49.432;11.418;2022-08-25T15:20:17;5.30;;;4.75;;
15012;SDS011;7603;49.432;11.418;2022-08-25T15:22:43;5.05;;;4.65;;
15012;SDS011;7603;49.432;11.418;2022-08-25T15:25:09;5.95;;;4.97;;
15012;SDS011;7603;49.432;11.418;2022-08-25T15:27:36;4.18;;;3.90;;
15012;SDS011;7603;49.432;11.418;2022-08-25T15:30:02;9.27;;;5.30;;
15012;SDS011;7603;49.432;11.418;2022-08-25T15:32:29;5.07;;;4.60;;
15012;SDS011;7603;49.432;11.418;2022-08-25T15:34:54;10.40;;;5.10;;
15012;SDS011;7603;49.432;11.418;2022-08-25T15:37:20;5.60;;;4.32;;
15012;SDS011;7603;49.432;11.418;2022-08-25T15:39:46;4.80;;;4.40;;
15012;SDS011;7603;49.432;11.418;2022-08-25T15:42:12;7.47;;;4.60;;
15012;SDS011;7603;49.432;11.418;2022-08-25T15:44:40;9.27;;;5.20;;
15012;SDS011;7603;49.432;11.418;2022-08-25T15:47:07;9.45;;;4.65;;
15012;SDS011;7603;49.432;11.418;2022-08-25T15:49:33;10.05;;;4.97;;
15012;SDS011;7603;49.432;11.418;2022-08-25T15:51:59;4.93;;;4.38;;
15012;SDS011;7603;49.432;11.418;2022-08-25T15:54:25;7.78;;;5.18;;
15012;SDS011;7603;49.432;11.418;2022-08-25T15:56:52;8.60;;;4.70;;
15012;SDS011;7603;49.432;11.418;2022-08-25T15:59:19;6.78;;;4.50;;
15012;SDS011;7603;49.432;11.418;2022-08-25T16:01:44;5.35;;;4.80;;
15012;SDS011;7603;49.432;11.418;2022-08-25T16:04:10;6.78;;;4.93;;
15012;SDS011;7603;49.432;11.418;2022-08-25T16:06:37;5.85;;;4.95;;
15012;SDS011;7603;49.432;11.418;2022-08-25T16:09:03;10.88;;;5.65;;
15012;SDS011;7603;49.432;11.418;2022-08-25T16:11:29;8.05;;;4.70;;
15012;SDS011;7603;49.432;11.418;2022-08-25T16:13:57;7.72;;;4.60;;
15012;SDS011;7603;49.432;11.418;2022-08-25T16:16:24;6.10;;;4.40;;
15012;SDS011;7603;49.432;11.418;2022-08-25T16:18:52;5.00;;;4.47;;
15012;SDS011;7603;49.432;11.418;2022-08-25T16:21:19;8.18;;;4.95;;
15012;SDS011;7603;49.432;11.418;2022-08-25T16:23:53;4.93;;;4.32;;
15012;SDS011;7603;49.432;11.418;2022-08-25T16:26:22;18.63;;;5.05;;
15012;SDS011;7603;49.432;11.418;2022-08-25T16:28:48;9.18;;;4.90;;
15012;SDS011;7603;49.432;11.418;2022-08-25T16:31:14;9.70;;;5.07;;
15012;SDS011;7603;49.432;11.418;2022-08-25T16:33:40;6.88;;;5.30;;
15012;SDS011;7603;49.432;11.418;2022-08-25T16:36:12;6.03;;;4.88;;
15012;SDS011;7603;49.432;11.418;2022-08-25T16:38:40;10.10;;;4.57;;
15012;SDS011;7603;49.432;11.418;2022-08-25T16:41:08;7.38;;;4.55;;
15012;SDS011;7603;49.432;11.418;2022-08-25T16:43:35;9.25;;;4.60;;
15012;SDS011;7603;49.432;11.418;2022-08-25T16:46:03;7.07;;;5.50;;
15012;SDS011;7603;49.432;11.418;2022-08-25T16:48:31;11.07;;;5.13;;
15012;SDS011;7603;49.432;11.418;2022-08-25T16:50:57;9.57;;;5.25;;